Francis Benedict — WDC2633 — position and weather

sailwx.info

Track history (hours):
 
Tides and Currents Weather Stations Pressure Air Temp Water Temp Dewpoint Dewpoint Depression Visibility Wind Speed Wind Dir Waves Ship Positions

Francis Benedict

Owner: Kirby Inland Marine LP, Houston, TX. More information available from US FCC via Universal Licensing System and Coast Guard Vessel Documentation Center.

Last reported at 2018-Jun-20 08:55 UTC. Time now 2018-Jun-20 17:28 UTC.
Position N 29°54' W 092°27'.

Length 217 m; draft 2.9 m.

Type: Towing. MMSI: 366995820.

Date/timePositionNaut miles runAvg speedWind from/ knotsBaromVisibWave heightAir tempDewpointWater temp
2018-Jun-20 08:55N 29°54' W 092°27'2 3.9
2018-Jun-20 08:23N 29°53' W 092°25'3 3.4
2018-Jun-20 07:24N 29°51' W 092°22'1 3.5
2018-Jun-20 07:00N 29°51' W 092°20'2 3.7
2018-Jun-20 06:30N 29°50' W 092°18'2 3.6
2018-Jun-20 06:00N 29°49' W 092°17'2 4.1
2018-Jun-20 05:30N 29°48' W 092°14'2 3.9
2018-Jun-20 05:00N 29°47' W 092°12'1 1.6
2018-Jun-20 04:31N 29°47' W 092°12'0 0.4
2018-Jun-20 04:00N 29°47' W 092°11'0 0.0
2018-Jun-20 03:30N 29°47' W 092°11'0 0.0
2018-Jun-20 03:01N 29°47' W 092°11'1 1.1
2018-Jun-20 02:31N 29°47' W 092°11'0 0.1
2018-Jun-20 02:00N 29°47' W 092°11'0 0.0
2018-Jun-20 01:30N 29°47' W 092°11'0 0.0
2018-Jun-20 01:00N 29°47' W 092°11'0 0.0
2018-Jun-20 00:30N 29°47' W 092°11'1 1.5
2018-Jun-20 00:00N 29°47' W 092°10'0 0.1
2018-Jun-19 23:30N 29°47' W 092°10'0 0.1
2018-Jun-19 23:00N 29°47' W 092°10'0 0.0
2018-Jun-19 22:30N 29°47' W 092°10'0 0.0
2018-Jun-19 22:00N 29°47' W 092°10'0 0.0
2018-Jun-19 21:30N 29°47' W 092°10'0 0.1
2018-Jun-19 21:00N 29°47' W 092°10'0 0.0
2018-Jun-19 20:30N 29°47' W 092°10'0 0.2
2018-Jun-19 19:58N 29°47' W 092°10'1 1.3
2018-Jun-19 19:30N 29°47' W 092°09'2 4.2
2018-Jun-19 19:00N 29°48' W 092°07'0 0.1
2018-Jun-19 18:30N 29°48' W 092°07'0 0.0
2018-Jun-19 18:01N 29°48' W 092°07'0 0.0
2018-Jun-19 17:31N 29°48' W 092°07'0 0.2
2018-Jun-19 17:00N 29°48' W 092°07'0 0.1
2018-Jun-19 16:30N 29°48' W 092°07'0 0.0
2018-Jun-19 16:00N 29°48' W 092°07'0 0.0
2018-Jun-19 15:31N 29°48' W 092°07'0 0.1
2018-Jun-19 15:00N 29°48' W 092°07'0 0.0
2018-Jun-19 14:30N 29°48' W 092°07'0 0.0
2018-Jun-19 14:00N 29°48' W 092°07'0 0.0
2018-Jun-19 13:30N 29°48' W 092°07'0 0.1
2018-Jun-19 13:00N 29°48' W 092°07'1 2.8
2018-Jun-19 12:30N 29°48' W 092°05'2 4.7
2018-Jun-19 12:00N 29°49' W 092°03'2 3.6
2018-Jun-19 11:30N 29°50' W 092°01'2 4.5
2018-Jun-19 11:00N 29°50' W 091°58'138 3.6
2018-Jun-17 21:03N 32°01' W 091°04'1 9.8
2018-Jun-17 21:00N 32°01' W 091°04'4 8.0
2018-Jun-17 20:27N 32°05' W 091°05'4 5.1
2018-Jun-17 19:41N 32°07' W 091°01'2 9.0
2018-Jun-17 19:31N 32°09' W 091°00'5 9.4
2018-Jun-17 19:01N 32°13' W 090°59'4 8.9
2018-Jun-17 18:31N 32°17' W 090°56'4 7.2
2018-Jun-17 18:01N 32°20' W 090°54'4 8.9
2018-Jun-17 17:31N 32°21' W 090°60'4 8.0
2018-Jun-17 17:00N 32°25' W 091°00'5 9.3
2018-Jun-17 16:30N 32°27' W 091°05'5 9.5
2018-Jun-17 16:00N 32°32' W 091°06'4 8.6
2018-Jun-17 15:31N 32°36' W 091°08'4 8.7
2018-Jun-17 15:00N 32°40' W 091°08'  
2018-Jun-12 06:43N 32°45' W 091°09'2 5.1
2018-Jun-12 06:14N 32°44' W 091°06'7 4.0
2018-Jun-12 04:32N 32°38' W 091°09'0 6.4
2018-Jun-12 04:30N 32°38' W 091°09'2 4.7
2018-Jun-12 04:00N 32°36' W 091°08'3 6.2
2018-Jun-12 03:30N 32°33' W 091°06'4 5.2
2018-Jun-12 02:45N 32°30' W 091°07'1 5.9
2018-Jun-12 02:30N 32°28' W 091°06'3 5.7
2018-Jun-12 02:00N 32°26' W 091°04'3 6.0
2018-Jun-12 01:30N 32°25' W 091°00'3 5.0
2018-Jun-12 01:00N 32°23' W 091°00'1 2.5
2018-Jun-12 00:30N 32°22' W 091°00'3 6.2
2018-Jun-12 00:00N 32°21' W 090°57'3 5.4
2018-Jun-11 23:30N 32°20' W 090°54'2 4.1
2018-Jun-11 23:00N 32°18' W 090°56'0 0.0
2018-Jun-11 22:30N 32°18' W 090°56'0 0.0
2018-Jun-11 22:00N 32°18' W 090°56'0 0.0
2018-Jun-11 21:30N 32°18' W 090°56'0 0.0
2018-Jun-11 21:00N 32°18' W 090°56'0 0.0
2018-Jun-11 20:30N 32°18' W 090°56'0 0.0
2018-Jun-11 20:00N 32°18' W 090°56'0 0.0
2018-Jun-11 19:30N 32°18' W 090°56'0 0.0
2018-Jun-11 19:00N 32°18' W 090°56'0 0.0
2018-Jun-11 18:30N 32°18' W 090°56'0 0.1
2018-Jun-11 18:00N 32°18' W 090°56'3 5.0
2018-Jun-11 17:30N 32°16' W 090°58'3 5.9
2018-Jun-11 17:00N 32°13' W 090°59'3 6.3
2018-Jun-11 16:30N 32°10' W 090°60'3 5.9
2018-Jun-11 16:00N 32°08' W 091°01'4 6.3
2018-Jun-11 15:23N 32°08' W 091°06'6 5.5
2018-Jun-11 14:22N 32°03' W 091°04'3 7.2
2018-Jun-11 14:00N 32°01' W 091°05'  
Track history (hours):
 
Tides and Currents Weather Stations Pressure Air Temp Water Temp Dewpoint Dewpoint Depression Visibility Wind Speed Wind Dir Waves Ship Positions

Francis Benedict

Owner: Kirby Inland Marine LP, Houston, TX. More information available from US FCC via Universal Licensing System and Coast Guard Vessel Documentation Center.

Last reported at 2018-Jun-20 08:55 UTC. Time now 2018-Jun-20 17:28 UTC.
Position N 29°54' W 092°27'.

Length 217 m; draft 2.9 m.

Type: Towing. MMSI: 366995820.

Date/timePositionNaut miles runAvg speedWind from/ knotsBaromVisibWave heightAir tempDewpointWater temp
2018-Jun-20 08:55N 29°54' W 092°27'2 3.9
2018-Jun-20 08:23N 29°53' W 092°25'3 3.4
2018-Jun-20 07:24N 29°51' W 092°22'1 3.5
2018-Jun-20 07:00N 29°51' W 092°20'2 3.7
2018-Jun-20 06:30N 29°50' W 092°18'2 3.6
2018-Jun-20 06:00N 29°49' W 092°17'2 4.1
2018-Jun-20 05:30N 29°48' W 092°14'2 3.9
2018-Jun-20 05:00N 29°47' W 092°12'1 1.6
2018-Jun-20 04:31N 29°47' W 092°12'0 0.4
2018-Jun-20 04:00N 29°47' W 092°11'0 0.0
2018-Jun-20 03:30N 29°47' W 092°11'0 0.0
2018-Jun-20 03:01N 29°47' W 092°11'1 1.1
2018-Jun-20 02:31N 29°47' W 092°11'0 0.1
2018-Jun-20 02:00N 29°47' W 092°11'0 0.0
2018-Jun-20 01:30N 29°47' W 092°11'0 0.0
2018-Jun-20 01:00N 29°47' W 092°11'0 0.0
2018-Jun-20 00:30N 29°47' W 092°11'1 1.5
2018-Jun-20 00:00N 29°47' W 092°10'0 0.1
2018-Jun-19 23:30N 29°47' W 092°10'0 0.1
2018-Jun-19 23:00N 29°47' W 092°10'0 0.0
2018-Jun-19 22:30N 29°47' W 092°10'0 0.0
2018-Jun-19 22:00N 29°47' W 092°10'0 0.0
2018-Jun-19 21:30N 29°47' W 092°10'0 0.1
2018-Jun-19 21:00N 29°47' W 092°10'0 0.0
2018-Jun-19 20:30N 29°47' W 092°10'0 0.2
2018-Jun-19 19:58N 29°47' W 092°10'1 1.3
2018-Jun-19 19:30N 29°47' W 092°09'2 4.2
2018-Jun-19 19:00N 29°48' W 092°07'0 0.1
2018-Jun-19 18:30N 29°48' W 092°07'0 0.0
2018-Jun-19 18:01N 29°48' W 092°07'0 0.0
2018-Jun-19 17:31N 29°48' W 092°07'0 0.2
2018-Jun-19 17:00N 29°48' W 092°07'0 0.1
2018-Jun-19 16:30N 29°48' W 092°07'0 0.0
2018-Jun-19 16:00N 29°48' W 092°07'0 0.0
2018-Jun-19 15:31N 29°48' W 092°07'0 0.1
2018-Jun-19 15:00N 29°48' W 092°07'0 0.0
2018-Jun-19 14:30N 29°48' W 092°07'0 0.0
2018-Jun-19 14:00N 29°48' W 092°07'0 0.0
2018-Jun-19 13:30N 29°48' W 092°07'0 0.1
2018-Jun-19 13:00N 29°48' W 092°07'1 2.8
2018-Jun-19 12:30N 29°48' W 092°05'2 4.7
2018-Jun-19 12:00N 29°49' W 092°03'2 3.6
2018-Jun-19 11:30N 29°50' W 092°01'2 4.5
2018-Jun-19 11:00N 29°50' W 091°58'138 3.6
2018-Jun-17 21:03N 32°01' W 091°04'1 9.8
2018-Jun-17 21:00N 32°01' W 091°04'4 8.0
2018-Jun-17 20:27N 32°05' W 091°05'4 5.1
2018-Jun-17 19:41N 32°07' W 091°01'2 9.0
2018-Jun-17 19:31N 32°09' W 091°00'5 9.4
2018-Jun-17 19:01N 32°13' W 090°59'4 8.9
2018-Jun-17 18:31N 32°17' W 090°56'4 7.2
2018-Jun-17 18:01N 32°20' W 090°54'4 8.9
2018-Jun-17 17:31N 32°21' W 090°60'4 8.0
2018-Jun-17 17:00N 32°25' W 091°00'5 9.3
2018-Jun-17 16:30N 32°27' W 091°05'5 9.5
2018-Jun-17 16:00N 32°32' W 091°06'4 8.6
2018-Jun-17 15:31N 32°36' W 091°08'4 8.7
2018-Jun-17 15:00N 32°40' W 091°08'  
2018-Jun-12 06:43N 32°45' W 091°09'2 5.1
2018-Jun-12 06:14N 32°44' W 091°06'7 4.0
2018-Jun-12 04:32N 32°38' W 091°09'0 6.4
2018-Jun-12 04:30N 32°38' W 091°09'2 4.7
2018-Jun-12 04:00N 32°36' W 091°08'3 6.2
2018-Jun-12 03:30N 32°33' W 091°06'4 5.2
2018-Jun-12 02:45N 32°30' W 091°07'1 5.9
2018-Jun-12 02:30N 32°28' W 091°06'3 5.7
2018-Jun-12 02:00N 32°26' W 091°04'3 6.0
2018-Jun-12 01:30N 32°25' W 091°00'3 5.0
2018-Jun-12 01:00N 32°23' W 091°00'1 2.5
2018-Jun-12 00:30N 32°22' W 091°00'3 6.2
2018-Jun-12 00:00N 32°21' W 090°57'3 5.4
2018-Jun-11 23:30N 32°20' W 090°54'2 4.1
2018-Jun-11 23:00N 32°18' W 090°56'0 0.0
2018-Jun-11 22:30N 32°18' W 090°56'0 0.0
2018-Jun-11 22:00N 32°18' W 090°56'0 0.0
2018-Jun-11 21:30N 32°18' W 090°56'0 0.0
2018-Jun-11 21:00N 32°18' W 090°56'0 0.0
2018-Jun-11 20:30N 32°18' W 090°56'0 0.0
2018-Jun-11 20:00N 32°18' W 090°56'0 0.0
2018-Jun-11 19:30N 32°18' W 090°56'0 0.0
2018-Jun-11 19:00N 32°18' W 090°56'0 0.0
2018-Jun-11 18:30N 32°18' W 090°56'0 0.1
2018-Jun-11 18:00N 32°18' W 090°56'3 5.0
2018-Jun-11 17:30N 32°16' W 090°58'3 5.9
2018-Jun-11 17:00N 32°13' W 090°59'3 6.3
2018-Jun-11 16:30N 32°10' W 090°60'3 5.9
2018-Jun-11 16:00N 32°08' W 091°01'4 6.3
2018-Jun-11 15:23N 32°08' W 091°06'6 5.5
2018-Jun-11 14:22N 32°03' W 091°04'3 7.2
2018-Jun-11 14:00N 32°01' W 091°05'  

Dump ship's entire track history